createdAt,value
2022-12-29T00:00:08.745Z,35.93
2022-12-29T00:02:43.207Z,7.93
2022-12-29T00:05:11.731Z,8.63
2022-12-29T00:07:40.324Z,8.47
2022-12-29T00:10:09.197Z,6.30
2022-12-29T00:12:56.076Z,10.93
2022-12-29T00:15:39.453Z,6.97
2022-12-29T00:18:08.471Z,6.77
2022-12-29T00:20:56.730Z,8.90
2022-12-29T00:23:43.481Z,7.43
2022-12-29T00:26:37.889Z,10.03
2022-12-29T00:29:24.413Z,10.77
2022-12-29T00:32:11.115Z,6.87
2022-12-29T00:34:57.832Z,6.77
2022-12-29T00:37:46.506Z,5.00
2022-12-29T00:40:33.441Z,9.70
2022-12-29T00:43:20.717Z,12.33
2022-12-29T00:45:49.243Z,8.60
2022-12-29T00:48:37.533Z,7.30
2022-12-29T00:51:06.241Z,6.70
2022-12-29T00:53:35.970Z,19.10
2022-12-29T00:56:04.525Z,7.80
2022-12-29T00:58:32.874Z,5.97
2022-12-29T01:01:06.347Z,9.00
2022-12-29T01:03:36.618Z,9.33
2022-12-29T01:06:06.600Z,6.47
2022-12-29T01:08:35.788Z,7.30
2022-12-29T01:11:13.543Z,5.97
2022-12-29T01:13:43.762Z,7.70
2022-12-29T01:16:13.278Z,9.77
2022-12-29T01:18:42.848Z,12.07
2022-12-29T01:21:11.163Z,7.70
2022-12-29T01:23:39.513Z,12.73
2022-12-29T01:26:12.039Z,9.83
2022-12-29T01:28:41.467Z,26.77
2022-12-29T01:31:14.352Z,9.30
2022-12-29T01:33:43.428Z,10.90
2022-12-29T01:36:13.596Z,9.17
2022-12-29T01:38:42.828Z,21.70
2022-12-29T01:41:12.379Z,11.87
2022-12-29T01:43:44.579Z,5.73
2022-12-29T01:46:27.888Z,5.93
2022-12-29T01:49:08.850Z,5.30
2022-12-29T01:51:42.643Z,5.37
2022-12-29T01:54:32.916Z,5.10
2022-12-29T01:57:03.787Z,3.20
2022-12-29T01:59:38.177Z,6.10
2022-12-29T02:02:06.658Z,8.40
2022-12-29T02:04:35.790Z,6.07
2022-12-29T02:07:10.356Z,5.23
2022-12-29T02:09:38.628Z,5.73
2022-12-29T02:12:07.327Z,5.80
2022-12-29T02:14:35.861Z,6.53
2022-12-29T02:17:13.766Z,7.10
2022-12-29T02:20:01.357Z,5.13
2022-12-29T02:22:30.598Z,3.37
2022-12-29T02:25:27.407Z,3.03
2022-12-29T02:28:19.975Z,3.77
2022-12-29T02:31:21.519Z,7.10
2022-12-29T02:34:08.769Z,3.40
2022-12-29T02:37:14.918Z,6.80
2022-12-29T02:39:52.195Z,5.30
2022-12-29T02:42:29.472Z,4.23
2022-12-29T02:45:07.532Z,3.30
2022-12-29T02:47:43.615Z,3.60
2022-12-29T02:50:35.171Z,3.70
2022-12-29T02:53:08.285Z,2.10
2022-12-29T02:55:36.677Z,3.10
2022-12-29T02:58:18.041Z,3.93
2022-12-29T03:01:17.106Z,2.83
2022-12-29T03:03:57.267Z,4.43
2022-12-29T03:06:34.762Z,4.00
2022-12-29T03:09:21.882Z,2.77
2022-12-29T03:12:15.333Z,6.37
2022-12-29T03:15:05.016Z,4.00
2022-12-29T03:17:58.500Z,1.93
2022-12-29T03:20:33.167Z,4.03
2022-12-29T03:23:03.365Z,4.00
2022-12-29T03:25:37.135Z,4.40
2022-12-29T03:28:14.213Z,2.00
2022-12-29T03:30:46.133Z,2.20
2022-12-29T03:33:23.623Z,2.73
2022-12-29T03:35:53.058Z,5.30
2022-12-29T03:38:24.655Z,6.10
2022-12-29T03:40:56.047Z,3.67
2022-12-29T03:43:25.504Z,4.53
2022-12-29T03:45:54.017Z,8.50
2022-12-29T03:48:22.341Z,2.73
2022-12-29T03:50:52.479Z,3.37
2022-12-29T03:53:21.005Z,2.97
2022-12-29T03:55:49.446Z,2.77
2022-12-29T03:58:17.935Z,2.10
2022-12-29T04:01:08.381Z,6.40
2022-12-29T04:03:40.490Z,2.57
2022-12-29T04:06:09.466Z,2.53
2022-12-29T04:08:47.761Z,5.43
2022-12-29T04:11:16.142Z,3.43
2022-12-29T04:13:44.644Z,1.80
2022-12-29T04:16:16.939Z,3.40
2022-12-29T04:18:45.543Z,2.47
2022-12-29T04:21:14.594Z,2.60
2022-12-29T04:23:44.668Z,2.33
2022-12-29T04:26:14.695Z,4.87
2022-12-29T04:29:05.933Z,17.50
2022-12-29T04:32:00.189Z,5.50
2022-12-29T04:34:30.734Z,3.10
2022-12-29T04:37:00.826Z,2.30
2022-12-29T04:39:30.473Z,3.70
2022-12-29T04:41:59.086Z,2.27
2022-12-29T04:44:27.821Z,1.70
2022-12-29T04:47:13.654Z,7.77
2022-12-29T04:49:51.789Z,44.77
2022-12-29T04:52:55.789Z,4.50
2022-12-29T04:55:24.186Z,2.27
2022-12-29T04:57:52.663Z,5.23
2022-12-29T05:00:21.808Z,4.33
2022-12-29T05:02:50.464Z,3.20
2022-12-29T05:05:19.231Z,3.63
2022-12-29T05:07:50.873Z,3.00
2022-12-29T05:10:19.616Z,3.60
2022-12-29T05:12:49.997Z,2.77
2022-12-29T05:15:19.387Z,4.43
2022-12-29T05:17:47.719Z,9.10
2022-12-29T05:20:16.444Z,3.97
2022-12-29T05:22:47.544Z,2.57
2022-12-29T05:25:17.062Z,2.53
2022-12-29T05:27:56.006Z,4.13
2022-12-29T05:30:44.015Z,2.20
2022-12-29T05:33:13.108Z,2.80
2022-12-29T05:35:42.248Z,6.07
2022-12-29T05:38:11.517Z,4.80
2022-12-29T05:40:40.345Z,4.63
2022-12-29T05:43:20.534Z,4.23
2022-12-29T05:46:10.113Z,6.40
2022-12-29T05:49:01.606Z,4.43
2022-12-29T05:51:50.164Z,3.00
2022-12-29T05:54:18.747Z,3.03
2022-12-29T05:56:47.670Z,8.40
2022-12-29T05:59:16.174Z,12.27
2022-12-29T06:01:44.766Z,6.00
2022-12-29T06:04:13.943Z,4.87
2022-12-29T06:06:42.907Z,6.13
2022-12-29T06:09:18.609Z,8.23
2022-12-29T06:11:47.000Z,3.97
2022-12-29T06:14:15.775Z,3.63
2022-12-29T06:16:44.418Z,6.13
2022-12-29T06:19:15.401Z,9.63
2022-12-29T06:21:43.849Z,4.13
2022-12-29T06:24:12.555Z,3.40
2022-12-29T06:26:41.460Z,3.97
2022-12-29T06:29:09.910Z,2.90
2022-12-29T06:31:38.515Z,4.17
2022-12-29T06:34:08.643Z,6.63
2022-12-29T06:36:38.631Z,7.10
2022-12-29T06:39:07.311Z,5.70
2022-12-29T06:41:36.512Z,7.33
2022-12-29T06:44:23.468Z,15.00
2022-12-29T06:46:55.024Z,24.40
2022-12-29T06:49:23.323Z,31.03
2022-12-29T06:51:51.832Z,28.73
2022-12-29T06:54:20.073Z,42.50
2022-12-29T06:56:48.676Z,35.67
2022-12-29T06:59:17.970Z,49.13
2022-12-29T07:01:46.886Z,51.97
2022-12-29T07:04:15.487Z,46.23
2022-12-29T07:06:43.891Z,57.60
2022-12-29T07:09:12.590Z,52.63
2022-12-29T07:11:40.982Z,49.63
2022-12-29T07:14:09.621Z,60.10
2022-12-29T07:16:38.450Z,60.00
2022-12-29T07:19:07.116Z,64.30
2022-12-29T07:21:35.720Z,67.83
2022-12-29T07:24:04.481Z,56.80
2022-12-29T07:26:36.301Z,58.67
2022-12-29T07:29:05.561Z,72.23
2022-12-29T07:31:34.087Z,66.87
2022-12-29T07:34:02.684Z,60.37
2022-12-29T07:36:54.163Z,64.47
2022-12-29T07:39:55.423Z,52.60
2022-12-29T07:42:58.465Z,53.37
2022-12-29T07:49:04.778Z,61.53
2022-12-29T07:51:37.519Z,53.90
2022-12-29T07:54:06.032Z,55.30
2022-12-29T07:56:34.306Z,59.53
2022-12-29T07:59:02.829Z,67.57
2022-12-29T08:01:31.521Z,65.03
2022-12-29T08:04:00.025Z,58.27
2022-12-29T08:06:28.591Z,35.53
2022-12-29T08:08:57.532Z,49.03
2022-12-29T08:11:25.998Z,31.97
2022-12-29T08:13:54.496Z,35.87
2022-12-29T08:16:22.981Z,34.50
2022-12-29T08:18:51.658Z,34.70
2022-12-29T08:21:20.326Z,35.67
2022-12-29T08:23:49.085Z,29.13
2022-12-29T08:26:17.562Z,25.43
2022-12-29T08:28:45.894Z,26.17
2022-12-29T08:31:15.812Z,28.90
2022-12-29T08:33:44.125Z,27.00
2022-12-29T08:36:12.728Z,28.00
2022-12-29T08:38:41.108Z,39.00
2022-12-29T08:41:09.630Z,27.20
2022-12-29T08:43:38.023Z,29.37
2022-12-29T08:46:06.539Z,27.30
2022-12-29T08:48:34.945Z,23.87
2022-12-29T08:51:03.439Z,26.70
2022-12-29T08:53:32.448Z,30.27
2022-12-29T08:56:05.160Z,61.57
2022-12-29T08:58:44.198Z,46.58
2022-12-29T09:01:13.007Z,29.80
2022-12-29T09:06:32.621Z,21.70
2022-12-29T09:09:03.551Z,24.88
2022-12-29T09:11:32.053Z,23.35
2022-12-29T09:14:00.862Z,17.50
2022-12-29T09:16:29.683Z,17.77
2022-12-29T09:18:58.322Z,20.52
2022-12-29T09:21:27.342Z,19.50
2022-12-29T09:23:56.854Z,21.42
2022-12-29T09:26:25.348Z,18.67
2022-12-29T09:28:53.723Z,24.33
2022-12-29T09:31:22.196Z,35.05
2022-12-29T09:33:50.614Z,26.92
2022-12-29T09:36:19.074Z,21.95
2022-12-29T09:38:47.483Z,19.65
2022-12-29T09:41:22.609Z,28.48
2022-12-29T09:43:57.360Z,23.23
2022-12-29T09:46:30.810Z,22.90
2022-12-29T09:49:09.997Z,25.98
2022-12-29T09:51:39.165Z,29.33
2022-12-29T09:54:22.784Z,38.55
2022-12-29T09:56:51.344Z,35.47
2022-12-29T09:59:21.913Z,26.40
2022-12-29T10:02:02.782Z,71.10
2022-12-29T10:04:31.274Z,54.57
2022-12-29T10:07:28.644Z,66.77
2022-12-29T10:10:05.158Z,35.47
2022-12-29T10:12:39.546Z,22.47
2022-12-29T10:15:17.708Z,19.83
2022-12-29T10:18:31.990Z,17.90
2022-12-29T10:21:10.131Z,14.27
2022-12-29T10:23:50.133Z,32.67
2022-12-29T10:26:27.887Z,12.43
2022-12-29T10:29:07.104Z,14.27
2022-12-29T10:31:58.067Z,11.97
2022-12-29T10:34:40.125Z,11.87
2022-12-29T10:37:33.774Z,9.30
2022-12-29T10:40:04.344Z,10.07
2022-12-29T10:42:44.645Z,35.13
2022-12-29T10:45:17.156Z,16.50
2022-12-29T10:47:57.482Z,9.13
2022-12-29T10:50:26.724Z,20.90
2022-12-29T10:52:55.358Z,15.20
2022-12-29T10:55:29.273Z,13.13
2022-12-29T10:57:58.576Z,9.30
2022-12-29T11:00:26.922Z,10.40
2022-12-29T11:03:23.354Z,7.30
2022-12-29T11:05:56.898Z,13.47
2022-12-29T11:08:27.206Z,13.27
2022-12-29T11:11:03.381Z,8.37
2022-12-29T11:13:38.871Z,6.60
2022-12-29T11:16:08.148Z,10.97
2022-12-29T11:18:41.080Z,8.00
2022-12-29T11:21:41.536Z,7.00
2022-12-29T11:24:24.714Z,6.30
2022-12-29T11:26:58.845Z,5.67
2022-12-29T11:29:38.207Z,6.53
2022-12-29T11:32:29.078Z,7.20
2022-12-29T11:35:02.418Z,6.13
2022-12-29T11:37:35.767Z,9.07
2022-12-29T11:40:09.424Z,9.53
2022-12-29T11:42:49.212Z,6.60
2022-12-29T11:45:19.629Z,10.77
2022-12-29T11:47:59.210Z,15.63
2022-12-29T11:50:38.830Z,12.57
2022-12-29T11:53:07.706Z,9.47
2022-12-29T11:55:36.013Z,11.93
2022-12-29T11:58:04.603Z,12.57
2022-12-29T12:00:34.064Z,14.23
2022-12-29T12:03:26.376Z,11.03
2022-12-29T12:05:57.660Z,10.13
2022-12-29T12:08:36.897Z,10.10
2022-12-29T12:11:08.875Z,12.53
2022-12-29T12:14:03.893Z,18.80
2022-12-29T12:16:56.485Z,22.00
2022-12-29T12:19:28.016Z,18.53
2022-12-29T12:22:15.275Z,17.73
2022-12-29T12:25:06.739Z,18.27
2022-12-29T12:27:53.051Z,16.97
2022-12-29T12:30:26.159Z,18.13
2022-12-29T12:33:15.237Z,14.67
2022-12-29T12:36:01.580Z,11.03
2022-12-29T12:38:50.786Z,14.80
2022-12-29T12:41:46.721Z,19.17
2022-12-29T12:44:39.915Z,62.20
2022-12-29T12:47:34.335Z,21.93
2022-12-29T12:50:18.752Z,14.30
2022-12-29T12:53:27.617Z,12.43
2022-12-29T12:56:05.524Z,17.03
2022-12-29T12:58:37.835Z,37.17
2022-12-29T13:01:16.094Z,17.43
2022-12-29T13:03:54.927Z,95.60
2022-12-29T13:06:54.063Z,23.87
2022-12-29T13:09:28.589Z,83.43
2022-12-29T13:12:00.134Z,72.60
2022-12-29T13:14:52.733Z,26.57
2022-12-29T13:17:38.782Z,97.10
2022-12-29T13:20:12.862Z,156.80
2022-12-29T13:23:02.894Z,48.33
2022-12-29T13:25:42.976Z,23.47
2022-12-29T13:28:27.731Z,34.77
2022-12-29T13:31:19.789Z,37.77
2022-12-29T13:34:03.275Z,57.13
2022-12-29T13:36:44.583Z,130.00
2022-12-29T13:39:21.069Z,51.73
2022-12-29T13:41:55.017Z,15.73
2022-12-29T13:44:37.259Z,57.77
2022-12-29T13:47:24.053Z,34.63
2022-12-29T13:49:52.566Z,13.03
2022-12-29T13:52:36.387Z,28.93
2022-12-29T13:55:23.063Z,51.87
2022-12-29T13:58:14.019Z,85.93
2022-12-29T14:01:13.337Z,35.10
2022-12-29T14:03:49.553Z,17.57
2022-12-29T14:06:22.067Z,11.67
2022-12-29T14:08:51.514Z,17.37
2022-12-29T14:11:22.831Z,7.90
2022-12-29T14:13:51.309Z,9.93
2022-12-29T14:16:26.216Z,15.67
2022-12-29T14:18:55.612Z,15.03
2022-12-29T14:21:29.123Z,18.10
2022-12-29T14:24:21.226Z,15.87
2022-12-29T14:26:49.891Z,16.03
2022-12-29T14:29:30.173Z,22.63
2022-12-29T14:31:59.012Z,19.83
2022-12-29T14:34:30.150Z,14.60
2022-12-29T14:37:00.788Z,18.87
2022-12-29T14:39:35.137Z,18.27
2022-12-29T14:42:07.517Z,20.57
2022-12-29T14:44:36.245Z,17.17
2022-12-29T14:47:09.521Z,32.40
2022-12-29T14:49:43.272Z,25.70
2022-12-29T14:52:20.577Z,16.33
2022-12-29T14:54:59.100Z,16.53
2022-12-29T14:57:39.226Z,14.67
2022-12-29T15:00:18.149Z,28.00
2022-12-29T15:02:50.231Z,20.97
2022-12-29T15:05:31.847Z,28.67
2022-12-29T15:08:00.503Z,26.03
2022-12-29T15:10:32.673Z,21.57
2022-12-29T15:13:06.023Z,28.67
2022-12-29T15:15:38.718Z,42.30
2022-12-29T15:18:27.535Z,30.03
2022-12-29T15:21:06.014Z,27.63
2022-12-29T15:23:35.381Z,28.60
2022-12-29T15:26:06.409Z,24.80
2022-12-29T15:28:42.562Z,31.33
2022-12-29T15:31:30.263Z,26.03
2022-12-29T15:34:21.438Z,26.23
2022-12-29T15:36:51.581Z,23.67
2022-12-29T15:39:27.986Z,56.57
2022-12-29T15:42:24.437Z,36.13
2022-12-29T15:44:57.926Z,23.17
2022-12-29T15:47:31.904Z,16.00
2022-12-29T15:50:06.827Z,14.73
2022-12-29T15:52:35.383Z,12.97
2022-12-29T15:55:04.923Z,9.87
2022-12-29T15:57:44.723Z,10.33
2022-12-29T16:00:31.277Z,11.00
2022-12-29T16:03:04.159Z,9.87
2022-12-29T16:05:37.127Z,12.30
2022-12-29T16:08:22.484Z,14.23
2022-12-29T16:10:51.882Z,14.57
2022-12-29T16:13:35.518Z,15.73
2022-12-29T16:16:10.936Z,18.70
2022-12-29T16:18:39.728Z,19.27
2022-12-29T16:21:34.441Z,14.47
2022-12-29T16:24:06.920Z,15.27
2022-12-29T16:26:35.516Z,13.77
2022-12-29T16:29:06.675Z,15.03
2022-12-29T16:31:37.148Z,19.10
2022-12-29T16:34:30.937Z,16.93
2022-12-29T16:37:06.738Z,12.73
2022-12-29T16:39:40.901Z,9.20
2022-12-29T16:42:35.306Z,9.53
2022-12-29T16:45:23.924Z,12.10
2022-12-29T16:48:08.306Z,11.60
2022-12-29T16:50:40.392Z,16.33
2022-12-29T16:53:25.644Z,12.60
2022-12-29T16:55:55.012Z,14.93
2022-12-29T16:58:26.229Z,13.43
2022-12-29T17:00:58.683Z,12.37
2022-12-29T17:03:34.708Z,15.73
2022-12-29T17:06:04.279Z,12.20
2022-12-29T17:08:42.743Z,8.00
2022-12-29T17:11:51.262Z,7.53
2022-12-29T17:14:29.283Z,7.40
2022-12-29T17:16:58.211Z,8.30
2022-12-29T17:19:32.767Z,6.87
2022-12-29T17:22:01.972Z,8.77
2022-12-29T17:24:30.928Z,6.63
2022-12-29T17:27:01.205Z,9.70
2022-12-29T17:29:38.209Z,8.73
2022-12-29T17:32:08.609Z,10.90
2022-12-29T17:34:37.639Z,10.70
2022-12-29T17:37:27.457Z,21.17
2022-12-29T17:39:56.308Z,15.67
2022-12-29T17:42:26.388Z,10.27
2022-12-29T17:44:55.737Z,11.13
2022-12-29T17:47:24.618Z,12.70
2022-12-29T17:49:53.556Z,8.50
2022-12-29T17:52:25.456Z,14.80
2022-12-29T17:54:57.988Z,15.27
2022-12-29T17:57:26.989Z,10.67
2022-12-29T17:59:56.623Z,14.87
2022-12-29T18:02:32.651Z,9.97
2022-12-29T18:05:01.542Z,10.20
2022-12-29T18:07:35.681Z,8.23
2022-12-29T18:10:05.498Z,11.73
2022-12-29T18:12:41.466Z,6.53
2022-12-29T18:15:24.359Z,7.17
2022-12-29T18:18:01.787Z,9.27
2022-12-29T18:20:31.275Z,6.13
2022-12-29T18:23:05.307Z,7.37
2022-12-29T18:25:54.366Z,12.30
2022-12-29T18:28:24.247Z,12.80
2022-12-29T18:30:53.826Z,13.27
2022-12-29T18:33:26.288Z,14.40
2022-12-29T18:36:02.305Z,13.20
2022-12-29T18:38:30.824Z,17.50
2022-12-29T18:41:00.050Z,15.00
2022-12-29T18:43:29.012Z,18.83
2022-12-29T18:45:58.311Z,11.13
2022-12-29T18:48:28.387Z,10.37
2022-12-29T18:50:57.869Z,159.17
2022-12-29T18:53:26.693Z,36.13
2022-12-29T18:55:58.973Z,14.17
2022-12-29T18:58:33.944Z,14.23
2022-12-29T19:01:04.286Z,25.07
2022-12-29T19:03:33.246Z,12.53
2022-12-29T19:06:01.864Z,10.60
2022-12-29T19:08:30.733Z,20.40
2022-12-29T19:11:03.725Z,12.70
2022-12-29T19:13:32.350Z,12.17
2022-12-29T19:16:02.288Z,9.97
2022-12-29T19:18:53.357Z,20.03
2022-12-29T19:21:20.595Z,17.33
2022-12-29T19:23:49.670Z,10.47
2022-12-29T19:26:35.392Z,11.97
2022-12-29T19:29:07.778Z,11.43
2022-12-29T19:31:39.055Z,10.20
2022-12-29T19:34:07.618Z,12.03
2022-12-29T19:36:38.583Z,13.97
2022-12-29T19:39:08.741Z,12.07
2022-12-29T19:41:38.739Z,18.03
2022-12-29T19:44:08.979Z,14.50
2022-12-29T19:46:37.837Z,13.33
2022-12-29T19:49:06.998Z,14.10
2022-12-29T19:51:35.730Z,12.77
2022-12-29T19:54:04.841Z,19.77
2022-12-29T19:56:34.536Z,21.60
2022-12-29T19:59:06.404Z,15.77
2022-12-29T20:01:35.420Z,11.03
2022-12-29T20:04:04.493Z,13.33
2022-12-29T20:06:32.940Z,9.07
2022-12-29T20:09:03.062Z,17.00
2022-12-29T20:11:32.365Z,16.33
2022-12-29T20:14:01.342Z,16.07
2022-12-29T20:16:33.325Z,9.60
2022-12-29T20:19:01.843Z,12.70
2022-12-29T20:21:32.500Z,16.80
2022-12-29T20:24:01.217Z,7.27
2022-12-29T20:26:31.353Z,13.37
2022-12-29T20:29:01.268Z,15.10
2022-12-29T20:31:32.870Z,14.50
2022-12-29T20:34:02.260Z,18.33
2022-12-29T20:36:32.837Z,26.63
2022-12-29T20:39:04.773Z,13.37
2022-12-29T20:41:33.377Z,11.47
2022-12-29T20:44:02.322Z,14.57
2022-12-29T20:46:36.710Z,16.50
2022-12-29T20:49:11.733Z,20.93
2022-12-29T20:52:05.178Z,24.10
2022-12-29T20:54:30.751Z,14.03
2022-12-29T20:57:03.555Z,21.23
2022-12-29T20:59:32.363Z,17.23
2022-12-29T21:02:01.038Z,32.10
2022-12-29T21:04:50.237Z,18.83
2022-12-29T21:07:20.352Z,16.10
2022-12-29T21:09:49.673Z,17.97
2022-12-29T21:12:20.936Z,14.93
2022-12-29T21:14:49.428Z,21.57
2022-12-29T21:17:19.064Z,19.47
2022-12-29T21:19:47.701Z,13.63
2022-12-29T21:22:16.283Z,9.97
2022-12-29T21:24:44.644Z,9.60
2022-12-29T21:27:13.070Z,12.50
2022-12-29T21:29:41.532Z,12.07
2022-12-29T21:32:09.987Z,8.90
2022-12-29T21:34:38.467Z,8.87
2022-12-29T21:37:06.920Z,14.00
2022-12-29T21:39:35.418Z,12.47
2022-12-29T21:42:04.008Z,21.10
2022-12-29T21:44:50.678Z,18.83
2022-12-29T21:47:19.287Z,17.77
2022-12-29T21:49:48.120Z,14.03
2022-12-29T21:52:16.618Z,27.40
2022-12-29T21:55:05.344Z,8.73
2022-12-29T21:57:52.293Z,11.33
2022-12-29T22:00:39.120Z,10.13
2022-12-29T22:03:26.139Z,6.93
2022-12-29T22:06:13.081Z,8.67
2022-12-29T22:09:00.583Z,10.20
2022-12-29T22:11:47.582Z,7.90
2022-12-29T22:14:15.990Z,9.40
2022-12-29T22:16:44.543Z,7.00
2022-12-29T22:19:12.893Z,15.60
2022-12-29T22:21:41.526Z,8.87
2022-12-29T22:24:10.253Z,6.47
2022-12-29T22:26:38.678Z,10.87
2022-12-29T22:29:07.127Z,6.83
2022-12-29T22:31:35.630Z,9.80
2022-12-29T22:34:04.475Z,7.70
2022-12-29T22:36:33.684Z,10.20
2022-12-29T22:39:02.262Z,7.43
2022-12-29T22:41:30.790Z,8.40
2022-12-29T22:43:59.247Z,8.30
2022-12-29T22:46:27.897Z,6.13
2022-12-29T22:48:57.465Z,7.17
2022-12-29T22:51:26.617Z,9.60
2022-12-29T22:53:55.121Z,13.63
2022-12-29T22:56:24.370Z,11.80
2022-12-29T22:58:53.227Z,35.13
2022-12-29T23:01:22.972Z,8.90
2022-12-29T23:03:51.876Z,8.07
2022-12-29T23:06:20.430Z,12.30
2022-12-29T23:08:48.975Z,5.43
2022-12-29T23:11:17.537Z,6.50
2022-12-29T23:13:46.388Z,6.57
2022-12-29T23:16:15.824Z,6.40
2022-12-29T23:18:44.856Z,8.23
2022-12-29T23:21:13.930Z,6.13
2022-12-29T23:23:54.098Z,7.83
2022-12-29T23:26:27.375Z,5.47
2022-12-29T23:28:59.871Z,11.67
2022-12-29T23:31:29.399Z,11.00
2022-12-29T23:34:01.575Z,9.53
2022-12-29T23:36:30.267Z,7.47
2022-12-29T23:38:58.888Z,6.27
2022-12-29T23:41:27.581Z,8.40
2022-12-29T23:43:56.223Z,7.33
2022-12-29T23:46:25.869Z,7.63
2022-12-29T23:48:54.421Z,5.83
2022-12-29T23:51:22.857Z,7.17
2022-12-29T23:53:51.484Z,9.03
2022-12-29T23:56:21.543Z,7.37
2022-12-29T23:58:50.428Z,5.73
